Airfield :
LOGIN :

Register | Disclaimer

   EN    FR    IT 

 










Legend :    VFR   Marginal VFR   IFR   Intensive IFR   Very Intensive IFR
Visi :
Ceiling :
>= 8 km
>= 3000ft
5 to 8 km
1000 to 3000 ft
1500m to 5 km
500 to 1000 ft
800 to 1500m
200 to 500 ft
< 800m
< 200 ft
Symbols :   Thunderstorms  Fog  Heavy snow  Heavy precipitations  Wind > 20 kt
SIGMETs :     Misc.  Thunderstorms  Icing  Turbulence  Mountain Waves  Volcanic Ashes







- Airport Elevation : 784 ft
- IATA code : TZL


LQTZ - Tuzla

CURRENT METAR :
  • 230730Z VRB01KT 2000 BR BKN010 OVC015 M02/M02 Q1001

EXPIRED METARs :
  • 230700Z VRB01KT 2000 BR BKN010 OVC015 M02/M02 Q1001
  • 230630Z VRB01KT 2000 BR BKN010 OVC015 M02/M02 Q1001
  • 230600Z VRB01KT 3000 BR BKN012 OVC020 M02/M02 Q1001
  • 230530Z VRB02KT 4000 BR FEW010 BKN015 OVC025 M02/M02 Q1001
  • 230500Z VRB01KT 4000 BR FEW007 BKN015 OVC025 M03/M03 Q1000
  • 230430Z 31003KT 4000 BR FEW007 BKN015 OVC025 M02/M02 Q1001

TAF TAF LQTZ
Valid from the 23 at 06:00 until the 24 at 06:00 UTC


230500Z 2306/2406 28004KT 3500 BR BKN015 OVC025 TXM01/2313Z TNM04/2406Z
TEMPO 2309/2318 6000 NSW BKN030
BECMG 2318/2320 2000 BR
PROB40
TEMPO 2400/2406 0300 FZFG BKN002 OVC005
No reported NOTAMs for that airfield.



MET'MAP, your aeronautical weather chart ! - Copyright ORBIFLY December 2007 - Disclaimer

ORBIFLY MET'MAP TEAM :

Programming & Development : Alexandra Zaïnal
Concept & Development : Baudouin d'Aumeries
Co-Development & Prog : Marc-Olivier Méhu
Technical & hardware support : Manuel Goepfert

Contact : metmap@orbifly.com




SOURCES & CREDITS :

   NOAA